createdAt,value
2023-01-29T00:04:35.719Z,18.31
2023-01-29T00:09:42.858Z,18.75
2023-01-29T00:14:51.160Z,20.04
2023-01-29T00:19:54.588Z,20.05
2023-01-29T00:24:59.413Z,21.20
2023-01-29T00:30:14.588Z,19.96
2023-01-29T00:35:22.864Z,19.41
2023-01-29T00:40:27.983Z,19.89
2023-01-29T00:45:33.661Z,19.92
2023-01-29T00:50:39.313Z,18.56
2023-01-29T00:55:47.148Z,19.67
2023-01-29T01:00:53.268Z,18.86
2023-01-29T01:06:06.477Z,16.31
2023-01-29T01:11:13.635Z,15.85
2023-01-29T01:16:20.293Z,15.11
2023-01-29T01:21:23.701Z,13.68
2023-01-29T01:26:28.939Z,10.88
2023-01-29T01:31:32.378Z,10.62
2023-01-29T01:36:37.795Z,9.80
2023-01-29T01:41:42.593Z,10.18
2023-01-29T01:46:45.993Z,10.29
2023-01-29T01:51:53.804Z,11.14
2023-01-29T01:57:09.280Z,10.33
2023-01-29T02:02:33.992Z,10.28
2023-01-29T02:07:59.791Z,11.84
2023-01-29T02:13:05.382Z,10.89
2023-01-29T02:18:09.094Z,11.36
2023-01-29T02:23:29.888Z,12.72
2023-01-29T02:28:40.104Z,12.49
2023-01-29T02:33:53.181Z,12.61
2023-01-29T02:39:02.463Z,13.55
2023-01-29T02:44:14.738Z,14.14
2023-01-29T02:49:24.617Z,14.40
2023-01-29T02:54:33.811Z,14.56
2023-01-29T02:59:43.276Z,14.36
2023-01-29T03:04:53.747Z,13.87
2023-01-29T03:09:58.773Z,14.16
2023-01-29T03:15:14.234Z,14.56
2023-01-29T03:20:26.578Z,14.82
2023-01-29T03:25:48.117Z,14.47
2023-01-29T03:31:17.332Z,14.08
2023-01-29T03:36:38.317Z,13.55
2023-01-29T03:41:47.709Z,15.49
2023-01-29T03:47:00.303Z,16.20
2023-01-29T03:52:09.903Z,16.94
2023-01-29T03:57:20.576Z,16.75
2023-01-29T04:02:32.175Z,15.08
2023-01-29T04:07:43.526Z,15.34
2023-01-29T04:12:50.608Z,16.03
2023-01-29T04:17:58.651Z,21.05
2023-01-29T04:23:22.397Z,15.44
2023-01-29T04:28:29.366Z,26.55
2023-01-29T04:33:40.182Z,18.25
2023-01-29T04:38:55.733Z,17.11
2023-01-29T04:44:07.375Z,17.52
2023-01-29T04:49:19.817Z,19.09
2023-01-29T04:54:35.461Z,19.34
2023-01-29T04:59:43.810Z,18.02
2023-01-29T05:04:51.364Z,18.17
2023-01-29T05:09:57.496Z,19.63
2023-01-29T05:15:03.818Z,21.19
2023-01-29T05:20:09.822Z,18.74
2023-01-29T05:25:31.123Z,18.87
2023-01-29T05:30:35.661Z,20.37
2023-01-29T05:35:41.726Z,21.23
2023-01-29T05:40:45.134Z,23.73
2023-01-29T05:45:53.585Z,21.86
2023-01-29T05:51:02.425Z,19.84
2023-01-29T05:56:06.514Z,19.03
2023-01-29T06:01:13.577Z,19.54
2023-01-29T06:06:18.589Z,18.43
2023-01-29T06:11:24.627Z,19.69
2023-01-29T06:16:28.070Z,19.50
2023-01-29T06:21:33.029Z,19.56
2023-01-29T06:26:36.393Z,19.58
2023-01-29T06:31:40.543Z,21.71
2023-01-29T06:36:45.337Z,21.51
2023-01-29T06:41:48.743Z,21.55
2023-01-29T06:46:52.135Z,21.44
2023-01-29T06:51:59.069Z,20.15
2023-01-29T06:57:02.501Z,21.35
2023-01-29T07:02:06.015Z,21.75
2023-01-29T07:07:13.896Z,21.17
2023-01-29T07:12:17.622Z,21.89
2023-01-29T07:17:23.153Z,20.82
2023-01-29T07:22:30.136Z,20.47
2023-01-29T07:27:33.767Z,20.13
2023-01-29T07:32:37.202Z,19.88
2023-01-29T07:37:44.114Z,22.73
2023-01-29T07:42:47.562Z,20.34
2023-01-29T07:47:53.629Z,20.96
2023-01-29T07:52:58.797Z,19.90
2023-01-29T07:58:04.041Z,20.96
2023-01-29T08:03:12.924Z,20.25
2023-01-29T08:08:20.392Z,20.83
2023-01-29T08:13:23.793Z,21.24
2023-01-29T08:18:27.773Z,22.46
2023-01-29T08:23:32.519Z,22.42
2023-01-29T08:28:38.655Z,21.02
2023-01-29T08:33:42.041Z,17.29
2023-01-29T08:38:46.736Z,16.52
2023-01-29T08:43:52.238Z,17.94
2023-01-29T08:48:55.639Z,20.86
2023-01-29T08:54:00.588Z,21.11
2023-01-29T08:59:04.067Z,19.79
2023-01-29T09:04:07.531Z,18.23
2023-01-29T09:09:13.007Z,19.19
2023-01-29T09:14:16.398Z,21.53
2023-01-29T09:19:19.832Z,20.98
2023-01-29T09:24:26.980Z,21.69
2023-01-29T09:29:30.435Z,23.41
2023-01-29T09:34:34.155Z,22.48
2023-01-29T09:39:38.908Z,23.02
2023-01-29T09:44:50.761Z,23.31
2023-01-29T09:50:00.867Z,22.41
2023-01-29T09:55:08.529Z,23.25
2023-01-29T10:00:16.802Z,31.52
2023-01-29T10:05:42.500Z,23.50
2023-01-29T10:10:52.783Z,23.87
2023-01-29T10:16:09.115Z,22.42
2023-01-29T10:21:31.505Z,23.12
2023-01-29T10:26:39.238Z,23.27
2023-01-29T10:31:44.217Z,27.15
2023-01-29T10:36:51.131Z,30.92
2023-01-29T10:42:05.788Z,24.23
2023-01-29T10:47:18.388Z,22.59
2023-01-29T10:52:30.820Z,23.58
2023-01-29T10:57:45.088Z,25.13
2023-01-29T11:02:53.030Z,24.95
2023-01-29T11:08:06.551Z,25.27
2023-01-29T11:13:15.765Z,30.60
2023-01-29T11:18:19.223Z,24.64
2023-01-29T11:23:28.352Z,23.61
2023-01-29T11:28:41.354Z,24.03
2023-01-29T11:33:47.637Z,24.08
2023-01-29T11:39:10.208Z,25.29
2023-01-29T11:44:21.371Z,27.01
2023-01-29T11:49:31.944Z,28.23
2023-01-29T11:54:41.422Z,26.67
2023-01-29T11:59:51.220Z,23.33
2023-01-29T12:04:57.161Z,22.69
2023-01-29T12:10:01.409Z,23.31
2023-01-29T12:15:16.197Z,24.67
2023-01-29T12:20:24.355Z,27.41
2023-01-29T12:25:36.903Z,25.06
2023-01-29T12:30:48.222Z,24.91
2023-01-29T12:35:57.598Z,25.65
2023-01-29T12:41:06.115Z,25.25
2023-01-29T12:46:21.570Z,27.14
2023-01-29T12:51:28.130Z,27.22
2023-01-29T12:56:36.947Z,27.76
2023-01-29T13:01:48.060Z,29.05
2023-01-29T13:06:59.371Z,28.62
2023-01-29T13:12:05.863Z,49.05
2023-01-29T13:17:17.287Z,33.93
2023-01-29T13:22:24.558Z,30.18
2023-01-29T13:27:29.187Z,29.28
2023-01-29T13:32:37.368Z,29.18
2023-01-29T13:37:44.341Z,27.78
2023-01-29T13:42:49.437Z,30.49
2023-01-29T13:47:54.359Z,30.38
2023-01-29T13:53:01.454Z,29.42
2023-01-29T13:58:05.144Z,31.41
2023-01-29T14:03:25.657Z,28.40
2023-01-29T14:08:40.830Z,29.31
2023-01-29T14:13:45.136Z,29.85
2023-01-29T14:18:50.814Z,32.95
2023-01-29T14:23:59.765Z,31.51
2023-01-29T14:29:06.373Z,31.97
2023-01-29T14:34:17.453Z,51.64
2023-01-29T14:39:29.866Z,31.89
2023-01-29T14:44:55.173Z,34.39
2023-01-29T14:49:59.656Z,43.05
2023-01-29T14:55:08.151Z,32.98
2023-01-29T15:00:19.999Z,30.80
2023-01-29T15:05:28.956Z,32.22
2023-01-29T15:10:40.104Z,30.64
2023-01-29T15:15:48.724Z,45.77
2023-01-29T15:21:04.721Z,29.91
2023-01-29T15:26:11.820Z,26.16
2023-01-29T15:31:19.435Z,26.37
2023-01-29T15:36:25.132Z,26.19
2023-01-29T15:41:29.802Z,25.79
2023-01-29T15:46:36.195Z,26.40
2023-01-29T15:51:40.059Z,24.80
2023-01-29T15:56:48.280Z,28.43
2023-01-29T16:01:51.659Z,24.81
2023-01-29T16:06:59.659Z,25.23
2023-01-29T16:12:05.454Z,30.63
2023-01-29T16:17:22.556Z,32.20
2023-01-29T16:22:27.320Z,33.57
2023-01-29T16:27:35.991Z,31.69
2023-01-29T16:32:44.769Z,30.44
2023-01-29T16:37:49.449Z,32.50
2023-01-29T16:43:12.127Z,32.74
2023-01-29T16:48:27.438Z,34.61
2023-01-29T16:53:30.875Z,33.37
2023-01-29T16:58:37.129Z,34.35
2023-01-29T17:03:43.863Z,34.32
2023-01-29T17:08:50.605Z,35.20
2023-01-29T17:13:57.235Z,35.35
2023-01-29T17:19:01.168Z,35.37
2023-01-29T17:24:07.910Z,37.51
2023-01-29T17:29:16.365Z,38.58
2023-01-29T17:34:19.789Z,34.88
2023-01-29T17:39:25.656Z,35.51
2023-01-29T17:44:30.439Z,35.73
2023-01-29T17:49:34.419Z,42.28
2023-01-29T17:54:38.031Z,37.67
2023-01-29T17:59:44.110Z,42.56
2023-01-29T18:04:51.015Z,36.12
2023-01-29T18:09:55.866Z,43.76
2023-01-29T18:15:05.517Z,43.64
2023-01-29T18:20:19.390Z,38.91
2023-01-29T18:25:24.813Z,40.49
2023-01-29T18:30:30.693Z,42.34
2023-01-29T18:35:34.177Z,38.43
2023-01-29T18:40:37.646Z,36.49
2023-01-29T18:45:42.501Z,35.72
2023-01-29T18:50:48.448Z,40.78
2023-01-29T18:55:55.984Z,38.10
2023-01-29T19:01:00.897Z,36.35
2023-01-29T19:06:08.165Z,37.72
2023-01-29T19:11:16.372Z,38.43
2023-01-29T19:16:22.248Z,44.07
2023-01-29T19:21:27.136Z,39.19
2023-01-29T19:26:34.183Z,37.97
2023-01-29T19:31:41.647Z,38.96
2023-01-29T19:36:47.532Z,40.29
2023-01-29T19:41:54.066Z,42.28
2023-01-29T19:46:59.158Z,39.66
2023-01-29T19:52:03.053Z,40.18
2023-01-29T19:57:07.609Z,40.08
2023-01-29T20:02:15.092Z,38.08
2023-01-29T20:07:19.947Z,38.09
2023-01-29T20:12:23.449Z,37.63
2023-01-29T20:17:28.258Z,38.80
2023-01-29T20:22:31.736Z,38.54
2023-01-29T20:27:35.203Z,37.53
2023-01-29T20:32:42.354Z,37.83
2023-01-29T20:37:45.843Z,36.71
2023-01-29T20:42:49.532Z,35.85
2023-01-29T20:47:59.107Z,38.70
2023-01-29T20:53:02.879Z,37.90
2023-01-29T20:58:06.923Z,38.62
2023-01-29T21:03:11.926Z,34.74
2023-01-29T21:08:15.440Z,34.66
2023-01-29T21:13:21.232Z,34.19
2023-01-29T21:18:26.464Z,33.70
2023-01-29T21:23:32.379Z,34.93
2023-01-29T21:28:35.875Z,36.42
2023-01-29T21:33:40.674Z,36.28
2023-01-29T21:38:44.073Z,36.18
2023-01-29T21:43:47.850Z,36.14
2023-01-29T21:48:52.571Z,37.56
2023-01-29T21:53:55.959Z,41.05
2023-01-29T21:59:02.502Z,39.61
2023-01-29T22:04:09.756Z,36.50
2023-01-29T22:09:13.558Z,35.60
2023-01-29T22:14:18.391Z,36.48
2023-01-29T22:19:25.572Z,36.66
2023-01-29T22:24:31.361Z,36.30
2023-01-29T22:29:34.851Z,36.22
2023-01-29T22:34:39.702Z,36.26
2023-01-29T22:39:45.276Z,35.43
2023-01-29T22:44:49.302Z,34.77
2023-01-29T22:49:54.043Z,32.17
2023-01-29T22:54:59.479Z,32.06
2023-01-29T23:00:03.907Z,31.88
2023-01-29T23:05:09.440Z,34.85
2023-01-29T23:10:14.678Z,36.25
2023-01-29T23:15:18.201Z,36.01
2023-01-29T23:20:23.054Z,35.43
2023-01-29T23:25:46.818Z,35.53
2023-01-29T23:30:52.241Z,34.95
2023-01-29T23:36:00.795Z,34.94
2023-01-29T23:41:04.329Z,38.67
2023-01-29T23:46:07.807Z,34.53
2023-01-29T23:51:12.623Z,31.52
2023-01-29T23:56:18.379Z,33.39
